Time;durP1;ratioP1;P1;durP2;ratioP2;P2;SDS_P1;SDS_P2;PMS_P1;PMS_P2;Temp;Humidity;BMP_temperature;BMP_pressure;BME280_temperature;BME280_humidity;BME280_pressure;Samples;Min_cycle;Max_cycle;Signal;HPM_P1;HPM_P2
2021/12/22 00:01:04;;;;;;;188.43;62.77;;;-4.00;1.00;;;;;;4381215;28;659849;-73
2021/12/22 00:03:53;;;;;;;201.90;67.73;;;-4.00;1.00;;;;;;4376039;28;658842;-73
2021/12/22 00:06:41;;;;;;;203.88;64.53;;;-4.00;1.00;;;;;;4381358;28;659147;-73
2021/12/22 00:09:28;;;;;;;177.53;55.67;;;-4.00;1.00;;;;;;4411226;28;659062;-73
2021/12/22 00:12:16;;;;;;;204.70;68.10;;;-4.00;1.00;;;;;;4380213;28;658884;-73
2021/12/22 00:15:03;;;;;;;212.10;70.20;;;-4.00;1.00;;;;;;4408798;28;659790;-73
2021/12/22 00:17:51;;;;;;;221.83;72.53;;;-4.00;1.00;;;;;;4379633;28;658559;-73
2021/12/22 00:20:40;;;;;;;199.60;69.77;;;-4.00;1.00;;;;;;4401798;28;659375;-73
2021/12/22 00:23:28;;;;;;;218.10;70.50;;;-4.10;1.00;;;;;;4384466;28;659237;-73
2021/12/22 00:26:16;;;;;;;195.80;67.83;;;-4.10;1.00;;;;;;4398345;28;658584;-73
2021/12/22 00:29:03;;;;;;;227.03;74.07;;;-4.10;1.00;;;;;;4419929;28;657998;-73
2021/12/22 00:32:08;;;;;;;213.73;64.83;;;-4.10;1.00;;;;;;4392996;28;658706;-73
2021/12/22 00:34:56;;;;;;;235.47;75.30;;;-4.10;1.00;;;;;;4378860;28;658721;-73
2021/12/22 00:37:45;;;;;;;232.32;72.97;;;-4.10;6.60;;;;;;4417955;28;659122;-74
2021/12/22 00:40:33;;;;;;;228.43;78.00;;;-4.10;17.30;;;;;;4392845;28;658974;-72
2021/12/22 00:43:20;;;;;;;221.87;74.33;;;-4.10;29.70;;;;;;4405051;28;659377;-73
2021/12/22 00:46:08;;;;;;;242.87;81.03;;;-4.10;40.30;;;;;;4420670;28;661448;-72
2021/12/22 00:48:55;;;;;;;241.38;79.57;;;-4.10;55.10;;;;;;4393936;28;659694;-73
2021/12/22 00:51:43;;;;;;;244.50;83.03;;;-4.10;74.30;;;;;;4422629;28;660021;-73
2021/12/22 00:54:32;;;;;;;235.23;74.28;;;-4.20;94.50;;;;;;4389928;28;659731;-73
2021/12/22 00:57:20;;;;;;;245.33;81.60;;;-4.10;99.90;;;;;;4425882;28;659328;-73
2021/12/22 01:00:09;;;;;;;229.27;76.97;;;-4.10;99.90;;;;;;4397081;28;660604;-74
2021/12/22 01:02:56;;;;;;;233.67;82.43;;;-4.10;99.90;;;;;;4396915;28;659792;-74
2021/12/22 01:05:44;;;;;;;250.82;88.53;;;-4.10;99.90;;;;;;4411754;28;660204;-73
2021/12/22 01:08:31;;;;;;;246.53;84.47;;;-4.00;99.90;;;;;;4400705;28;661108;-73
2021/12/22 01:11:20;;;;;;;257.33;82.57;;;-4.00;99.90;;;;;;4421997;28;659926;-73
2021/12/22 01:14:08;;;;;;;269.27;92.27;;;-4.00;99.90;;;;;;4391748;28;661427;-72
2021/12/22 01:17:00;;;;;;;277.35;95.88;;;-4.00;99.90;;;;;;4393979;28;659908;-73
2021/12/22 01:19:57;;;;;;;257.93;88.50;;;-4.00;99.90;;;;;;4389718;28;660034;-73
2021/12/22 01:22:49;;;;;;;196.37;60.83;;;-4.00;99.90;;;;;;4408555;28;660090;-73
2021/12/22 01:25:43;;;;;;;174.70;55.83;;;-4.00;99.90;;;;;;4396772;28;660409;-74
2021/12/22 01:28:33;;;;;;;222.30;72.20;;;-4.10;99.90;;;;;;4377674;28;660215;-74
2021/12/22 01:31:21;;;;;;;271.03;90.83;;;-4.00;99.90;;;;;;4411337;28;661052;-73
2021/12/22 01:34:08;;;;;;;254.37;84.00;;;-4.10;99.90;;;;;;4419637;28;661143;-73
2021/12/22 01:36:56;;;;;;;245.23;78.70;;;-4.10;99.90;;;;;;4398532;28;660146;-74
2021/12/22 01:39:43;;;;;;;251.82;86.15;;;-4.00;99.90;;;;;;4416315;28;661267;-73
2021/12/22 01:42:31;;;;;;;225.27;74.23;;;-4.10;99.90;;;;;;4391459;28;659895;-74
2021/12/22 01:45:30;;;;;;;260.93;85.03;;;-4.10;99.90;;;;;;4423187;28;659986;-73
2021/12/22 01:51:23;;;;;;;270.93;93.33;;;-4.10;99.90;;;;;;4377351;28;660333;-72
2021/12/22 01:54:12;;;;;;;258.57;88.90;;;-4.20;99.90;;;;;;4401543;28;660327;-72
2021/12/22 01:57:05;;;;;;;288.90;91.00;;;-4.20;99.90;;;;;;4439832;28;660871;-71
2021/12/22 01:59:54;;;;;;;218.67;68.90;;;-4.10;99.90;;;;;;4394878;28;660425;-73
2021/12/22 02:02:43;;;;;;;274.23;87.50;;;-4.20;99.90;;;;;;4396718;28;660231;-73
2021/12/22 02:05:31;;;;;;;292.23;94.07;;;-4.20;99.90;;;;;;4404217;28;659795;-73
2021/12/22 02:08:18;;;;;;;274.80;88.90;;;-4.20;99.90;;;;;;4411770;28;661673;-73
2021/12/22 02:11:06;;;;;;;257.02;84.25;;;-4.10;99.90;;;;;;4388233;28;659664;-73
2021/12/22 02:13:58;;;;;;;276.93;92.83;;;-4.10;99.90;;;;;;4426280;28;661279;-72
2021/12/22 02:16:45;;;;;;;266.87;89.80;;;-4.10;99.90;;;;;;4364997;28;660586;-73
2021/12/22 02:19:38;;;;;;;275.27;88.00;;;-4.10;99.90;;;;;;4418912;28;660504;-72
2021/12/22 02:22:27;;;;;;;239.77;75.97;;;-4.00;99.90;;;;;;4388400;28;659889;-72
2021/12/22 02:25:19;;;;;;;260.80;90.97;;;-4.00;99.90;;;;;;4414967;28;660486;-72
2021/12/22 02:28:14;;;;;;;265.27;88.57;;;-4.00;99.90;;;;;;4374480;28;660559;-72
2021/12/22 02:31:01;;;;;;;248.87;83.07;;;-4.00;99.90;;;;;;4396856;28;659163;-72
2021/12/22 02:33:50;;;;;;;235.20;69.73;;;-4.00;99.90;;;;;;4407305;28;660019;-73
2021/12/22 02:36:40;;;;;;;245.67;79.77;;;-4.00;99.90;;;;;;4389114;28;660605;-72
2021/12/22 02:39:27;;;;;;;238.90;78.67;;;-4.00;99.90;;;;;;4401980;28;660279;-72
2021/12/22 02:42:19;;;;;;;249.70;77.33;;;-4.00;99.90;;;;;;4414682;28;661048;-72
2021/12/22 02:45:08;;;;;;;225.53;69.53;;;-4.00;99.90;;;;;;4389454;28;660395;-72
2021/12/22 02:47:55;;;;;;;240.50;75.00;;;-4.00;99.90;;;;;;4400429;28;659805;-72
2021/12/22 02:50:44;;;;;;;248.03;74.63;;;-4.10;99.90;;;;;;4410215;28;661464;-72
2021/12/22 02:53:40;;;;;;;199.65;66.25;;;-4.10;99.90;;;;;;4392020;28;659494;-72
2021/12/22 02:56:36;;;;;;;213.03;62.43;;;-4.10;99.90;;;;;;4369293;28;660489;-73
2021/12/22 02:59:46;;;;;;;207.65;62.22;;;-4.10;99.90;;;;;;4397796;28;660306;-72
2021/12/22 03:02:40;;;;;;;204.13;64.63;;;-4.10;99.90;;;;;;4399342;28;659954;-72
2021/12/22 03:05:29;;;;;;;205.03;62.87;;;-4.00;99.90;;;;;;4377960;28;661149;-72
2021/12/22 03:08:16;;;;;;;171.60;54.70;;;-4.00;99.90;;;;;;4404171;28;660452;-72
2021/12/22 03:11:05;;;;;;;201.57;66.03;;;-4.00;99.90;;;;;;4422798;28;660240;-72
2021/12/22 03:13:53;;;;;;;180.93;60.95;;;-4.10;99.90;;;;;;4400086;28;660370;-73
2021/12/22 03:16:42;;;;;;;199.80;66.13;;;-4.00;99.90;;;;;;4406866;28;659763;-73
2021/12/22 03:19:31;;;;;;;213.73;73.80;;;-4.00;99.90;;;;;;4422308;28;659635;-73
2021/12/22 03:22:20;;;;;;;228.60;74.37;;;-3.90;99.90;;;;;;4399833;28;660447;-73
2021/12/22 03:25:14;;;;;;;211.47;69.20;;;-3.90;99.90;;;;;;4387187;28;660413;-73
2021/12/22 03:28:04;;;;;;;218.23;70.87;;;-3.90;99.90;;;;;;4398418;28;660382;-73
2021/12/22 03:30:53;;;;;;;187.00;60.03;;;-3.90;99.90;;;;;;4394039;28;659572;-73
2021/12/22 03:33:40;;;;;;;201.17;67.50;;;-3.80;99.90;;;;;;4391346;28;659933;-72
2021/12/22 03:36:28;;;;;;;209.60;65.33;;;-3.80;99.90;;;;;;4422567;28;660356;-72
2021/12/22 03:39:16;;;;;;;346.90;75.25;;;-3.80;99.90;;;;;;4403098;28;660842;-72
2021/12/22 03:42:04;;;;;;;180.27;57.10;;;-3.80;99.90;;;;;;4424073;28;660175;-73
2021/12/22 03:44:53;;;;;;;211.43;66.00;;;-3.80;99.90;;;;;;4396582;28;659917;-73
2021/12/22 03:47:40;;;;;;;214.57;64.53;;;-3.80;99.90;;;;;;4397646;28;659590;-73
2021/12/22 03:50:28;;;;;;;206.77;65.03;;;-3.80;99.90;;;;;;4413689;28;662188;-73
2021/12/22 03:53:15;;;;;;;196.17;62.53;;;-3.70;99.90;;;;;;4394518;28;660752;-72
2021/12/22 03:56:03;;;;;;;192.87;62.90;;;-3.70;99.90;;;;;;4423599;28;661473;-72
2021/12/22 03:58:51;;;;;;;174.80;53.93;;;-3.70;99.90;;;;;;4399890;28;660656;-73
2021/12/22 04:01:41;;;;;;;200.37;64.50;;;-3.80;99.90;;;;;;4417220;28;660384;-73
2021/12/22 04:04:29;;;;;;;195.93;63.07;;;-3.80;99.90;;;;;;4399005;28;659940;-73
2021/12/22 04:07:18;;;;;;;198.70;60.43;;;-3.80;99.90;;;;;;4397963;28;659690;-73
2021/12/22 04:10:19;;;;;;;193.20;63.33;;;-3.90;99.90;;;;;;4404329;28;660430;-72
2021/12/22 04:13:06;;;;;;;196.23;63.07;;;-3.90;99.90;;;;;;4402711;28;659511;-73
2021/12/22 04:15:54;;;;;;;172.80;51.33;;;-3.90;99.90;;;;;;4418953;28;660485;-74
2021/12/22 04:18:43;;;;;;;177.77;60.20;;;-3.90;99.90;;;;;;4390889;28;659553;-73
2021/12/22 04:21:30;;;;;;;169.20;56.97;;;-3.90;99.90;;;;;;4403310;28;659605;-72
2021/12/22 04:24:18;;;;;;;189.80;53.87;;;-3.90;99.90;;;;;;4422296;28;661054;-73
2021/12/22 04:27:06;;;;;;;148.87;48.50;;;-4.00;99.90;;;;;;4397375;28;660433;-73
2021/12/22 04:29:53;;;;;;;201.00;60.03;;;-4.00;99.90;;;;;;4416884;28;660126;-72
2021/12/22 04:32:41;;;;;;;189.70;56.37;;;-4.00;99.90;;;;;;4399214;28;659774;-72
2021/12/22 04:35:30;;;;;;;177.67;56.17;;;-3.90;99.90;;;;;;4417945;28;661211;-71
2021/12/22 04:38:17;;;;;;;191.90;58.03;;;-4.00;99.90;;;;;;4395261;28;659679;-72
2021/12/22 04:41:05;;;;;;;182.03;54.73;;;-4.00;99.90;;;;;;4418271;28;659843;-72
2021/12/22 04:43:52;;;;;;;182.63;54.37;;;-3.90;99.90;;;;;;4386542;28;660480;-72
2021/12/22 04:46:41;;;;;;;188.40;56.27;;;-3.90;99.90;;;;;;4409959;28;659494;-72
2021/12/22 04:49:28;;;;;;;173.20;52.93;;;-3.90;99.90;;;;;;4422531;28;660461;-72
2021/12/22 04:52:20;;;;;;;167.13;52.40;;;-3.90;99.90;;;;;;4398813;28;660004;-72
2021/12/22 04:55:08;;;;;;;176.90;52.60;;;-3.90;99.90;;;;;;4388517;28;660266;-72
2021/12/22 04:57:56;;;;;;;180.20;52.37;;;-3.80;99.90;;;;;;4387514;28;659655;-72
2021/12/22 05:00:44;;;;;;;171.60;54.23;;;-3.80;99.90;;;;;;4407696;28;659919;-71
2021/12/22 05:03:32;;;;;;;172.90;53.13;;;-3.70;99.90;;;;;;4385864;28;659784;-72
2021/12/22 05:06:19;;;;;;;179.63;55.83;;;-3.70;99.90;;;;;;4408043;28;660420;-72
2021/12/22 05:09:08;;;;;;;180.53;53.57;;;-3.70;99.90;;;;;;4393085;28;660004;-72
2021/12/22 05:11:56;;;;;;;163.20;52.13;;;-3.70;99.90;;;;;;4391618;28;659287;-72
2021/12/22 05:14:47;;;;;;;161.67;53.80;;;-3.60;99.90;;;;;;4420190;28;660722;-72
2021/12/22 05:20:52;;;;;;;188.27;54.40;;;-3.50;99.90;;;;;;4332793;28;659618;-72
2021/12/22 05:23:39;;;;;;;186.07;53.90;;;-3.40;99.90;;;;;;4356191;28;659664;-72
2021/12/22 05:26:28;;;;;;;172.73;54.57;;;-3.40;99.90;;;;;;4343703;28;660125;-72
2021/12/22 05:29:16;;;;;;;156.57;51.37;;;-3.40;99.90;;;;;;4347806;28;661108;-72
2021/12/22 05:32:04;;;;;;;160.75;49.75;;;-3.40;99.90;;;;;;4363670;28;660047;-71
2021/12/22 05:34:52;;;;;;;147.93;47.63;;;-3.30;99.90;;;;;;4340073;28;659665;-72
2021/12/22 05:37:40;;;;;;;161.15;48.88;;;-3.30;99.90;;;;;;4357527;28;659582;-72
2021/12/22 05:40:28;;;;;;;147.97;47.43;;;-3.30;99.90;;;;;;4344501;28;660346;-72
2021/12/22 05:43:17;;;;;;;139.67;46.37;;;-3.30;93.50;;;;;;4349868;28;659992;-71
2021/12/22 05:46:05;;;;;;;131.85;43.72;;;-3.30;92.80;;;;;;4371107;28;659352;-71
2021/12/22 05:48:53;;;;;;;122.87;44.17;;;-3.30;92.40;;;;;;4344645;28;659583;-71
2021/12/22 05:51:40;;;;;;;129.80;43.60;;;-3.30;94.10;;;;;;4341242;28;661272;-70
2021/12/22 05:54:28;;;;;;;127.60;44.33;;;-3.30;95.10;;;;;;4368175;28;660475;-71
2021/12/22 05:57:15;;;;;;;130.73;45.85;;;-3.30;96.40;;;;;;4349734;28;659705;-71
2021/12/22 06:00:07;;;;;;;130.87;43.93;;;-3.20;98.00;;;;;;4415707;28;661452;-71
2021/12/22 06:02:56;;;;;;;125.90;43.28;;;-3.20;98.80;;;;;;4387470;28;659928;-70
2021/12/22 06:05:44;;;;;;;109.67;40.13;;;-3.20;97.20;;;;;;4413580;28;659798;-71
2021/12/22 06:08:32;;;;;;;107.97;37.80;;;-3.20;93.20;;;;;;4392119;28;659421;-71
2021/12/22 06:11:19;;;;;;;111.63;39.13;;;-3.20;91.40;;;;;;4419529;28;660240;-71
2021/12/22 06:14:07;;;;;;;110.67;39.63;;;-3.20;91.10;;;;;;4401361;28;660091;-71
2021/12/22 06:16:56;;;;;;;100.22;35.45;;;-3.20;91.70;;;;;;4408842;28;659951;-71
2021/12/22 06:19:44;;;;;;;96.63;36.57;;;-3.20;90.60;;;;;;4386330;28;659862;-71
2021/12/22 06:22:34;;;;;;;98.73;35.10;;;-3.20;91.50;;;;;;4393465;28;658405;-71
2021/12/22 06:25:22;;;;;;;95.80;34.57;;;-3.20;92.80;;;;;;4389718;28;659497;-71
2021/12/22 06:28:10;;;;;;;88.93;32.27;;;-3.20;97.40;;;;;;4416334;28;658563;-72
2021/12/22 06:30:57;;;;;;;95.00;32.97;;;-3.10;99.40;;;;;;4389218;28;659092;-71
2021/12/22 06:33:47;;;;;;;94.20;33.47;;;-3.10;99.00;;;;;;4411250;28;659051;-70
2021/12/22 06:36:34;;;;;;;95.43;32.93;;;-3.10;97.20;;;;;;4395902;28;659431;-73
2021/12/22 06:39:22;;;;;;;97.40;34.13;;;-3.10;92.80;;;;;;4396179;28;659306;-73
2021/12/22 06:42:10;;;;;;;91.10;33.40;;;-3.10;84.60;;;;;;4409622;28;658882;-71
2021/12/22 06:44:58;;;;;;;85.47;31.33;;;-3.20;80.80;;;;;;4414602;28;659843;-71
2021/12/22 06:47:46;;;;;;;82.00;30.70;;;-3.10;76.20;;;;;;4396197;28;658804;-73
2021/12/22 06:50:35;;;;;;;79.83;31.00;;;-3.20;70.60;;;;;;4418149;28;659841;-73
2021/12/22 06:53:22;;;;;;;89.57;30.00;;;-3.20;63.90;;;;;;4391713;28;658702;-71
2021/12/22 06:56:11;;;;;;;86.80;30.27;;;-3.10;68.50;;;;;;4412507;28;659122;-73
2021/12/22 06:59:00;;;;;;;78.43;29.90;;;-3.20;57.40;;;;;;4411489;28;659476;-71
2021/12/22 07:01:47;;;;;;;83.17;32.53;;;-3.20;50.80;;;;;;4386338;28;659635;-71
2021/12/22 07:04:36;;;;;;;86.70;30.70;;;-3.20;41.30;;;;;;4407110;28;658545;-71
2021/12/22 07:07:25;;;;;;;73.13;28.87;;;-3.20;43.10;;;;;;4410344;28;659352;-71
2021/12/22 07:10:12;;;;;;;86.17;30.53;;;-3.20;43.30;;;;;;4390537;28;659300;-71
2021/12/22 07:13:01;;;;;;;89.73;30.77;;;-3.20;40.10;;;;;;4411974;28;659595;-71
2021/12/22 07:15:50;;;;;;;86.03;29.43;;;-3.20;38.80;;;;;;4416975;28;659075;-71
2021/12/22 07:18:38;;;;;;;84.43;30.23;;;-3.20;41.40;;;;;;4382595;28;659610;-71
2021/12/22 07:21:26;;;;;;;82.00;30.90;;;-3.20;41.60;;;;;;4395989;28;658704;-71
2021/12/22 07:24:15;;;;;;;82.40;28.77;;;-3.10;40.00;;;;;;4413010;28;659401;-71
2021/12/22 07:27:02;;;;;;;77.93;29.30;;;-3.10;27.40;;;;;;4397149;28;659844;-71
2021/12/22 07:29:51;;;;;;;76.47;30.30;;;-3.10;28.50;;;;;;4417896;28;658634;-71
2021/12/22 07:32:38;;;;;;;82.87;29.93;;;-3.00;26.80;;;;;;4389210;28;659608;-71
2021/12/22 07:35:30;;;;;;;69.10;27.00;;;-2.90;24.90;;;;;;4390174;28;659014;-70
2021/12/22 07:38:29;;;;;;;66.20;25.47;;;-2.80;18.40;;;;;;4390354;28;659400;-71
2021/12/22 07:41:19;;;;;;;72.30;27.13;;;-2.70;6.50;;;;;;4366528;28;658860;-71
2021/12/22 07:44:06;;;;;;;67.83;25.83;;;-2.70;1.00;;;;;;4391766;28;658092;-71
2021/12/22 07:46:54;;;;;;;68.80;25.30;;;-2.60;1.00;;;;;;4412489;28;657869;-71
2021/12/22 07:49:42;;;;;;;67.10;26.27;;;-2.60;1.00;;;;;;4388907;28;658549;-71
2021/12/22 07:52:30;;;;;;;64.50;25.45;;;-2.60;1.00;;;;;;4406799;28;657191;-71
2021/12/22 07:55:17;;;;;;;65.47;24.83;;;-2.50;1.00;;;;;;4389006;28;658381;-70
2021/12/22 07:58:07;;;;;;;66.70;24.03;;;-2.40;1.00;;;;;;4410444;28;657742;-70
2021/12/22 08:00:55;;;;;;;69.00;25.47;;;-2.30;1.00;;;;;;4393498;28;657357;-71
2021/12/22 08:03:43;;;;;;;66.05;25.10;;;-2.30;1.00;;;;;;4384442;28;658005;-71
2021/12/22 08:06:31;;;;;;;60.70;22.43;;;-2.30;1.00;;;;;;4392994;28;657861;-70
2021/12/22 08:09:25;;;;;;;60.13;24.07;;;-2.30;1.00;;;;;;4412901;28;658411;-71
2021/12/22 08:12:14;;;;;;;54.63;21.83;;;-2.20;1.00;;;;;;4364939;28;659207;-73
2021/12/22 08:15:03;;;;;;;60.47;22.80;;;-2.20;1.00;;;;;;4392563;28;657491;-70
2021/12/22 08:17:52;;;;;;;58.30;22.23;;;-2.10;1.00;;;;;;4392483;28;657720;-71
2021/12/22 08:20:41;;;;;;;61.83;23.73;;;-2.00;1.00;;;;;;4408964;28;659221;-70
2021/12/22 08:23:28;;;;;;;46.57;18.60;;;-2.00;1.00;;;;;;4409023;28;657864;-72
2021/12/22 08:26:16;;;;;;;47.87;19.73;;;-1.90;1.00;;;;;;4391736;28;658266;-70
2021/12/22 08:29:04;;;;;;;57.63;20.40;;;-2.10;95.40;;;;;;4401894;28;658226;-70
2021/12/22 08:31:53;;;;;;;50.87;19.63;;;-2.10;99.90;;;;;;4393918;28;658647;-70
2021/12/22 08:34:41;;;;;;;43.97;16.97;;;-2.00;90.50;;;;;;4388258;28;659088;-70
2021/12/22 08:40:34;;;;;;;41.73;16.97;;;-1.90;1.00;;;;;;4387278;28;657656;-70
2021/12/22 08:43:21;;;;;;;37.60;15.37;;;-1.70;28.20;;;;;;4389892;28;658318;-71
2021/12/22 08:46:09;;;;;;;40.00;16.43;;;-1.40;1.00;;;;;;4408827;28;658488;-71
2021/12/22 08:48:58;;;;;;;43.28;15.73;;;-1.30;99.90;;;;;;4393398;28;657675;-73
2021/12/22 08:51:46;;;;;;;35.60;15.47;;;-1.00;1.00;;;;;;4390924;28;658411;-70
2021/12/22 08:54:34;;;;;;;37.57;15.23;;;-0.80;1.00;;;;;;4407474;28;658209;-70
2021/12/22 08:57:21;;;;;;;32.67;13.43;;;-0.40;30.00;;;;;;4388905;28;658163;-70
2021/12/22 09:00:10;;;;;;;32.80;13.23;;;0.00;99.90;;;;;;4408168;28;659290;-72
2021/12/22 09:02:58;;;;;;;30.33;13.00;;;0.30;1.00;;;;;;4385944;28;658906;-72
2021/12/22 09:05:47;;;;;;;29.03;11.70;;;0.50;1.00;;;;;;4393268;28;657106;-72
2021/12/22 09:08:35;;;;;;;31.50;11.50;;;1.00;99.90;;;;;;4410543;28;656750;-72
2021/12/22 09:11:22;;;;;;;23.43;10.70;;;1.50;99.90;;;;;;4389649;28;658005;-72
2021/12/22 09:14:11;;;;;;;27.23;11.57;;;2.00;30.00;;;;;;4406686;28;657837;-73
2021/12/22 09:16:58;;;;;;;25.77;11.30;;;2.40;1.00;;;;;;4413274;28;658256;-72
2021/12/22 09:19:46;;;;;;;23.97;11.23;;;2.80;1.00;;;;;;4392352;28;656964;-73
2021/12/22 09:22:35;;;;;;;22.10;10.73;;;3.40;1.00;;;;;;4411204;28;657515;-73
2021/12/22 09:25:23;;;;;;;26.07;11.10;;;3.50;1.00;;;;;;4391064;28;657795;-73
2021/12/22 09:28:12;;;;;;;24.77;11.43;;;3.60;1.00;;;;;;4396286;28;656531;-73
2021/12/22 09:31:01;;;;;;;17.50;8.03;;;4.50;1.00;;;;;;4405813;28;657001;-74
2021/12/22 09:33:48;;;;;;;23.23;10.63;;;4.50;1.00;;;;;;4412134;28;655622;-73
2021/12/22 09:36:36;;;;;;;24.30;10.47;;;3.90;1.00;;;;;;4385571;28;656291;-73
2021/12/22 09:39:25;;;;;;;21.57;9.60;;;3.30;1.00;;;;;;4412349;28;657107;-73
2021/12/22 09:42:13;;;;;;;20.87;9.63;;;2.70;1.00;;;;;;4387028;28;655716;-72
2021/12/22 09:45:01;;;;;;;21.33;9.80;;;2.90;1.00;;;;;;4404037;28;655480;-72
2021/12/22 09:48:15;;;;;;;23.70;10.40;;;3.40;1.00;;;;;;4413008;28;656375;-72
2021/12/22 09:54:14;;;;;;;22.97;9.67;;;5.30;1.00;;;;;;4331811;28;657007;-72
2021/12/22 09:57:03;;;;;;;21.90;10.43;;;6.50;1.00;;;;;;4336181;28;655344;-73
2021/12/22 09:59:52;;;;;;;27.90;12.67;;;7.20;1.00;;;;;;4337784;28;657058;-73
2021/12/22 10:02:40;;;;;;;21.45;11.52;;;8.00;1.00;;;;;;4356102;28;656834;-73
2021/12/22 10:05:27;;;;;;;26.37;12.33;;;8.20;1.00;;;;;;4336137;28;657243;-73
2021/12/22 10:08:17;;;;;;;26.30;12.60;;;7.80;1.00;;;;;;4354657;28;656531;-73
2021/12/22 10:11:08;;;;;;;25.50;12.17;;;7.20;1.00;;;;;;4352824;28;657047;-73
2021/12/22 10:13:57;;;;;;;22.97;11.80;;;6.00;1.00;;;;;;4315228;28;657302;-73
2021/12/22 10:16:47;;;;;;;24.90;11.50;;;5.00;1.00;;;;;;4352614;28;657281;-72
2021/12/22 10:19:34;;;;;;;25.33;11.90;;;3.90;1.00;;;;;;4357377;28;656512;-72
2021/12/22 10:22:22;;;;;;;29.73;12.37;;;2.40;1.00;;;;;;4331667;28;657364;-72
2021/12/22 10:25:12;;;;;;;29.87;12.00;;;1.70;1.00;;;;;;4358080;28;656172;-72
2021/12/22 10:28:01;;;;;;;29.10;12.67;;;1.70;1.00;;;;;;4334803;28;656474;-72
2021/12/22 10:30:55;;;;;;;31.27;13.80;;;1.70;1.00;;;;;;4343132;28;657000;-72
2021/12/22 10:33:43;;;;;;;29.30;13.13;;;1.60;1.00;;;;;;4340736;28;656780;-72
2021/12/22 10:36:31;;;;;;;32.25;13.68;;;1.60;1.00;;;;;;4392420;28;656759;-72
2021/12/22 10:39:20;;;;;;;34.53;13.33;;;1.70;1.00;;;;;;4414809;28;657347;-72
2021/12/22 10:42:08;;;;;;;26.10;11.77;;;1.90;1.00;;;;;;4385990;28;657668;-72
2021/12/22 10:44:56;;;;;;;27.90;11.70;;;2.10;1.00;;;;;;4391775;28;656907;-72
2021/12/22 10:50:55;;;;;;;18.83;8.37;;;2.40;1.00;;;;;;4389758;28;655360;-72
2021/12/22 10:53:44;;;;;;;22.33;8.53;;;2.90;1.00;;;;;;4396312;28;656182;-72
2021/12/22 10:56:33;;;;;;;18.07;7.17;;;3.90;1.00;;;;;;4381639;28;655442;-72
2021/12/22 10:59:21;;;;;;;19.33;7.13;;;3.80;1.00;;;;;;4393499;28;655735;-73
2021/12/22 11:02:10;;;;;;;18.90;8.47;;;3.10;1.00;;;;;;4412754;28;656506;-72
2021/12/22 11:05:03;;;;;;;22.03;9.37;;;2.90;1.00;;;;;;4392554;28;656242;-72
2021/12/22 11:07:51;;;;;;;20.17;9.00;;;2.90;1.00;;;;;;4381314;28;655577;-73
2021/12/22 11:10:38;;;;;;;17.40;6.87;;;2.00;1.00;;;;;;4401067;28;656791;-73
2021/12/22 11:13:26;;;;;;;21.13;8.07;;;1.40;1.00;;;;;;4394627;28;655246;-73
2021/12/22 11:16:14;;;;;;;17.23;8.37;;;1.50;1.00;;;;;;4413467;28;656444;-72
2021/12/22 11:19:10;;;;;;;17.97;7.43;;;1.30;1.00;;;;;;4387323;28;654945;-73
2021/12/22 11:22:08;;;;;;;20.40;8.67;;;1.60;1.00;;;;;;4387979;28;655937;-73
2021/12/22 11:24:56;;;;;;;17.03;7.43;;;2.30;1.00;;;;;;4372060;28;655907;-73
2021/12/22 11:27:43;;;;;;;13.43;6.17;;;2.50;1.00;;;;;;4414645;28;656065;-73
2021/12/22 11:30:31;;;;;;;12.10;5.17;;;1.90;1.00;;;;;;4396054;28;655946;-73
2021/12/22 11:33:19;;;;;;;14.43;6.40;;;1.20;1.00;;;;;;4418821;28;655874;-72
2021/12/22 11:36:07;;;;;;;17.33;5.57;;;0.40;1.00;;;;;;4387629;28;655296;-73
2021/12/22 11:38:56;;;;;;;15.93;6.40;;;-0.20;1.00;;;;;;4409228;28;655454;-73
2021/12/22 11:41:54;;;;;;;13.20;5.27;;;-0.40;1.00;;;;;;4387059;28;656779;-73
2021/12/22 11:44:44;;;;;;;12.97;5.10;;;-0.60;1.00;;;;;;4389379;28;657576;-73
2021/12/22 11:47:31;;;;;;;12.40;5.40;;;-0.90;1.00;;;;;;4394919;28;656838;-72
2021/12/22 11:50:21;;;;;;;15.30;5.63;;;-1.00;1.00;;;;;;4406899;28;656952;-73
2021/12/22 11:53:09;;;;;;;15.27;5.43;;;-1.00;1.00;;;;;;4385980;28;656952;-71
2021/12/22 11:56:00;;;;;;;12.10;4.50;;;-0.90;1.00;;;;;;4392504;28;656904;-72
2021/12/22 11:58:50;;;;;;;11.60;4.53;;;-1.00;1.00;;;;;;4386569;28;657280;-72
2021/12/22 12:01:37;;;;;;;10.97;4.50;;;-1.30;1.00;;;;;;4389795;28;657590;-72
2021/12/22 12:04:25;;;;;;;12.93;4.20;;;-1.40;1.00;;;;;;4409312;28;657019;-71
2021/12/22 12:07:12;;;;;;;12.33;5.00;;;-1.50;1.00;;;;;;4389504;28;657490;-70
2021/12/22 12:10:39;;;;;;;16.73;5.50;;;-1.70;1.00;;;;;;4415248;28;657132;-70
2021/12/22 12:13:45;;;;;;;12.07;5.60;;;-1.70;1.00;;;;;;4393426;28;656691;-72
2021/12/22 12:22:43;;;;;;;14.77;4.77;;;-1.80;1.00;;;;;;4388538;28;656871;-70
2021/12/22 12:25:35;;;;;;;16.03;5.50;;;-1.70;1.00;;;;;;4393188;28;656766;-70
2021/12/22 12:28:23;;;;;;;14.53;5.53;;;-1.80;1.00;;;;;;4387413;28;657974;-72
2021/12/22 12:31:12;;;;;;;11.70;5.25;;;-1.90;1.00;;;;;;4393327;28;656902;-72
2021/12/22 12:34:21;;;;;;;21.07;7.80;;;-1.90;1.00;;;;;;4408884;28;657662;-72
2021/12/22 12:37:11;;;;;;;21.63;8.07;;;-2.00;1.00;;;;;;4389189;28;656701;-72
2021/12/22 12:39:59;;;;;;;23.73;7.53;;;-2.00;1.00;;;;;;4389278;28;657081;-73
2021/12/22 12:42:59;;;;;;;22.33;8.33;;;-1.90;1.00;;;;;;4393008;28;657155;-73
2021/12/22 12:45:48;;;;;;;23.27;8.30;;;-2.00;1.00;;;;;;4366641;28;656955;-73
2021/12/22 12:48:37;;;;;;;23.13;8.63;;;-1.90;1.00;;;;;;4404379;28;656619;-72
2021/12/22 12:51:28;;;;;;;25.37;9.00;;;-1.80;1.00;;;;;;4414750;28;656090;-70
2021/12/22 12:54:27;;;;;;;22.40;8.93;;;-1.70;1.00;;;;;;4371133;28;656718;-73
2021/12/22 12:57:28;;;;;;;28.50;10.27;;;-1.60;1.00;;;;;;4387992;28;656626;-72
2021/12/22 13:00:23;;;;;;;28.05;10.75;;;-1.60;1.00;;;;;;4370451;28;657621;-72
2021/12/22 13:03:11;;;;;;;29.30;10.73;;;-1.50;10.30;;;;;;4366675;28;657960;-72
2021/12/22 13:06:00;;;;;;;26.73;9.30;;;-1.40;69.20;;;;;;4407407;28;660001;-72
2021/12/22 13:08:47;;;;;;;34.73;11.97;;;-1.40;99.90;;;;;;4388995;28;658771;-70
2021/12/22 13:11:35;;;;;;;35.73;12.43;;;-1.40;99.90;;;;;;4410360;28;658993;-73
2021/12/22 13:17:36;;;;;;;36.97;12.03;;;-1.30;99.90;;;;;;4385405;28;658994;-71
2021/12/22 13:20:28;;;;;;;39.47;12.47;;;-1.30;99.90;;;;;;4383716;28;659210;-71
2021/12/22 13:23:18;;;;;;;31.70;12.50;;;-1.30;99.90;;;;;;4374531;28;658788;-72
2021/12/22 13:26:06;;;;;;;30.50;11.50;;;-1.30;99.90;;;;;;4392506;28;659332;-72
2021/12/22 13:28:53;;;;;;;33.40;12.00;;;-1.50;99.90;;;;;;4406531;28;660018;-72
2021/12/22 13:31:41;;;;;;;29.70;11.03;;;-1.20;99.90;;;;;;4390723;28;658631;-71
2021/12/22 13:34:30;;;;;;;29.63;11.17;;;-0.90;99.90;;;;;;4400806;28;658516;-71
2021/12/22 13:37:18;;;;;;;23.73;9.50;;;-0.70;94.70;;;;;;4404841;28;658651;-72
2021/12/22 13:40:08;;;;;;;26.23;9.73;;;-0.70;11.00;;;;;;4397454;28;658363;-72
2021/12/22 13:42:55;;;;;;;23.60;9.60;;;0.00;1.00;;;;;;4387920;28;659168;-72
2021/12/22 13:45:43;;;;;;;23.03;8.50;;;0.70;1.00;;;;;;4412942;28;655329;-72
2021/12/22 13:48:31;;;;;;;23.63;8.80;;;1.70;1.00;;;;;;4391693;28;655954;-73
2021/12/22 13:51:19;;;;;;;23.73;8.53;;;2.90;1.00;;;;;;4411332;28;656036;-70
2021/12/22 13:54:08;;;;;;;24.00;9.40;;;3.00;1.00;;;;;;4389237;28;656147;-73
2021/12/22 13:57:00;;;;;;;25.13;9.67;;;2.90;1.00;;;;;;4393913;28;655952;-73
2021/12/22 13:59:49;;;;;;;27.40;9.30;;;3.40;1.00;;;;;;4383846;28;656104;-73
2021/12/22 14:02:37;;;;;;;22.60;8.97;;;3.70;1.00;;;;;;4391118;28;655535;-73
2021/12/22 14:05:25;;;;;;;25.33;8.77;;;3.80;1.00;;;;;;4407208;28;655662;-72
2021/12/22 14:08:24;;;;;;;20.67;8.57;;;3.90;1.00;;;;;;4394199;28;656032;-73
2021/12/22 14:11:32;;;;;;;27.87;9.47;;;3.10;1.00;;;;;;4369508;28;656981;-73
2021/12/22 14:14:26;;;;;;;24.00;9.07;;;1.90;1.00;;;;;;4385238;28;655257;-72
2021/12/22 14:17:17;;;;;;;22.13;8.60;;;0.90;1.00;;;;;;4388783;28;655547;-71
2021/12/22 14:20:14;;;;;;;22.13;8.63;;;0.20;1.00;;;;;;4408310;28;655457;-72
2021/12/22 14:23:02;;;;;;;22.00;9.57;;;-0.20;1.00;;;;;;4393325;28;656057;-72
2021/12/22 14:25:51;;;;;;;27.03;10.07;;;-0.60;1.00;;;;;;4411303;28;656486;-72
2021/12/22 14:29:24;;;;;;;29.10;9.60;;;-1.00;1.00;;;;;;4387885;28;657912;-72
2021/12/22 14:32:13;;;;;;;25.23;9.70;;;-1.20;1.00;;;;;;4380191;28;657060;-72
2021/12/22 14:35:03;;;;;;;27.33;9.10;;;-1.40;1.00;;;;;;4396209;28;656130;-72
2021/12/22 14:37:56;;;;;;;24.42;9.63;;;-1.60;1.00;;;;;;4396292;28;656280;-72